createdAt,value
2024-02-06T00:00:24.863Z,93341.00
2024-02-06T00:01:25.034Z,93345.00
2024-02-06T00:02:25.018Z,93342.00
2024-02-06T00:03:24.958Z,93339.00
2024-02-06T00:04:25.075Z,93340.00
2024-02-06T00:05:25.115Z,93345.00
2024-02-06T00:06:25.223Z,93344.00
2024-02-06T00:07:32.169Z,93339.00
2024-02-06T00:08:26.170Z,93340.00
2024-02-06T00:09:25.108Z,93336.00
2024-02-06T00:10:26.596Z,93333.00
2024-02-06T00:11:25.088Z,93343.00
2024-02-06T00:12:25.098Z,93337.00
2024-02-06T00:13:25.091Z,93340.00
2024-02-06T00:14:25.053Z,93340.00
2024-02-06T00:15:25.047Z,93335.00
2024-02-06T00:16:25.082Z,93337.00
2024-02-06T00:17:25.026Z,93333.00
2024-02-06T00:18:25.042Z,93339.00
2024-02-06T00:19:25.108Z,93339.00
2024-02-06T00:20:25.207Z,93336.00
2024-02-06T00:21:25.174Z,93333.00
2024-02-06T00:22:25.312Z,93334.00
2024-02-06T00:23:25.289Z,93329.00
2024-02-06T00:24:25.355Z,93327.00
2024-02-06T00:25:25.423Z,93324.00
2024-02-06T00:26:25.452Z,93320.00
2024-02-06T00:27:25.504Z,93322.00
2024-02-06T00:28:25.605Z,93319.00
2024-02-06T00:29:25.587Z,93321.00
2024-02-06T00:30:25.635Z,93321.00
2024-02-06T00:31:25.740Z,93322.00
2024-02-06T00:32:25.817Z,93325.00
2024-02-06T00:33:25.910Z,93315.00
2024-02-06T00:34:25.939Z,93314.00
2024-02-06T00:35:25.795Z,93316.00
2024-02-06T00:36:25.757Z,93316.00
2024-02-06T00:37:25.746Z,93317.00
2024-02-06T00:38:25.723Z,93317.00
2024-02-06T00:39:25.717Z,93318.00
2024-02-06T00:40:25.772Z,93319.00
2024-02-06T00:41:25.677Z,93318.00
2024-02-06T00:42:25.712Z,93321.00
2024-02-06T00:43:25.787Z,93316.00
2024-02-06T00:44:25.814Z,93311.00
2024-02-06T00:45:25.873Z,93318.00
2024-02-06T00:46:25.945Z,93316.00
2024-02-06T00:47:25.961Z,93313.00
2024-02-06T00:48:26.104Z,93311.00
2024-02-06T00:49:26.232Z,93317.00
2024-02-06T00:50:26.242Z,93315.00
2024-02-06T00:51:26.093Z,93317.00
2024-02-06T00:52:26.250Z,93307.00
2024-02-06T00:53:26.198Z,93301.00
2024-02-06T00:54:26.247Z,93306.00
2024-02-06T00:55:26.344Z,93294.00
2024-02-06T00:56:26.348Z,93296.00
2024-02-06T00:57:26.391Z,93298.00
2024-02-06T00:58:26.462Z,93296.00
2024-02-06T00:59:26.424Z,93297.00
2024-02-06T01:00:26.425Z,93298.00
2024-02-06T01:01:26.449Z,93301.00
2024-02-06T01:02:26.381Z,93301.00
2024-02-06T01:03:26.400Z,93305.00
2024-02-06T01:04:26.432Z,93293.00
2024-02-06T01:05:26.336Z,93310.00
2024-02-06T01:06:26.339Z,93309.00
2024-02-06T01:07:26.376Z,93305.00
2024-02-06T01:08:26.391Z,93305.00
2024-02-06T01:09:26.418Z,93310.00
2024-02-06T01:10:26.488Z,93310.00
2024-02-06T01:11:26.509Z,93313.00
2024-02-06T01:12:26.551Z,93301.00
2024-02-06T01:13:26.624Z,93300.00
2024-02-06T01:14:26.649Z,93299.00
2024-02-06T01:15:26.669Z,93298.00
2024-02-06T01:16:26.804Z,93294.00
2024-02-06T01:17:26.771Z,93297.00
2024-02-06T01:18:26.844Z,93296.00
2024-02-06T01:19:26.926Z,93296.00
2024-02-06T01:20:26.926Z,93295.00
2024-02-06T01:21:26.967Z,93306.00
2024-02-06T01:22:27.064Z,93300.00
2024-02-06T01:23:27.022Z,93300.00
2024-02-06T01:24:27.090Z,93308.00
2024-02-06T01:25:27.166Z,93308.00
2024-02-06T01:26:27.189Z,93311.00
2024-02-06T01:27:27.210Z,93303.00
2024-02-06T01:28:27.272Z,93300.00
2024-02-06T01:29:27.303Z,93301.00
2024-02-06T01:30:27.344Z,93299.00
2024-02-06T01:31:27.415Z,93299.00
2024-02-06T01:32:27.436Z,93306.00
2024-02-06T01:33:27.549Z,93302.00
2024-02-06T01:34:27.581Z,93295.00
2024-02-06T01:35:27.557Z,93300.00
2024-02-06T01:36:27.800Z,93295.00
2024-02-06T01:37:27.684Z,93294.00
2024-02-06T01:38:27.658Z,93293.00
2024-02-06T01:39:27.695Z,93290.00
2024-02-06T01:40:27.811Z,93289.00
2024-02-06T01:41:27.789Z,93290.00
2024-02-06T01:42:27.841Z,93289.00
2024-02-06T01:43:27.913Z,93294.00
2024-02-06T01:44:27.921Z,93292.00
2024-02-06T01:45:27.975Z,93293.00
2024-02-06T01:46:28.007Z,93286.00
2024-02-06T01:47:27.949Z,93285.00
2024-02-06T01:48:28.022Z,93287.00
2024-02-06T01:49:28.045Z,93283.00
2024-02-06T01:50:27.929Z,93274.00
2024-02-06T01:51:27.894Z,93268.00
2024-02-06T01:52:27.979Z,93271.00
2024-02-06T01:53:27.878Z,93271.00
2024-02-06T01:54:27.860Z,93268.00
2024-02-06T01:55:27.930Z,93272.00
2024-02-06T01:56:27.966Z,93278.00
2024-02-06T01:57:27.995Z,93274.00
2024-02-06T01:58:28.109Z,93268.00
2024-02-06T01:59:28.113Z,93270.00
2024-02-06T02:00:28.161Z,93274.00
2024-02-06T02:01:28.264Z,93275.00
2024-02-06T02:02:28.263Z,93272.00
2024-02-06T02:03:28.386Z,93272.00
2024-02-06T02:04:28.504Z,93269.00
2024-02-06T02:05:28.506Z,93265.00
2024-02-06T02:06:28.389Z,93261.00
2024-02-06T02:07:28.413Z,93257.00
2024-02-06T02:08:28.291Z,93257.00
2024-02-06T02:09:28.321Z,93254.00
2024-02-06T02:10:28.316Z,93255.00
2024-02-06T02:11:28.228Z,93257.00
2024-02-06T02:12:28.223Z,93253.00
2024-02-06T02:13:28.303Z,93251.00
2024-02-06T02:14:28.311Z,93251.00
2024-02-06T02:15:28.366Z,93251.00
2024-02-06T02:16:28.431Z,93252.00
2024-02-06T02:17:28.496Z,93255.00
2024-02-06T02:18:28.612Z,93255.00
2024-02-06T02:19:28.795Z,93256.00
2024-02-06T02:20:28.615Z,93249.00
2024-02-06T02:21:28.652Z,93250.00
2024-02-06T02:22:28.708Z,93248.00
2024-02-06T02:24:28.777Z,93248.00
2024-02-06T02:25:28.870Z,93242.00
2024-02-06T02:26:28.817Z,93243.00
2024-02-06T02:27:28.796Z,93238.00
2024-02-06T02:28:28.825Z,93243.00
2024-02-06T02:29:28.766Z,93242.00
2024-02-06T02:30:28.754Z,93241.00
2024-02-06T02:31:28.755Z,93246.00
2024-02-06T02:32:28.801Z,93245.00
2024-02-06T02:33:28.776Z,93241.00
2024-02-06T02:34:28.900Z,93232.00
2024-02-06T02:35:28.664Z,93234.00
2024-02-06T02:36:28.660Z,93233.00
2024-02-06T02:37:28.684Z,93229.00
2024-02-06T02:38:28.670Z,93227.00
2024-02-06T02:39:28.713Z,93223.00
2024-02-06T02:40:28.795Z,93225.00
2024-02-06T02:41:28.782Z,93224.00
2024-02-06T02:42:28.833Z,93222.00
2024-02-06T02:43:28.924Z,93223.00
2024-02-06T02:44:28.925Z,93222.00
2024-02-06T02:45:28.939Z,93220.00
2024-02-06T02:46:29.034Z,93221.00
2024-02-06T02:47:29.047Z,93214.00
2024-02-06T02:48:29.060Z,93218.00
2024-02-06T02:49:29.165Z,93221.00
2024-02-06T02:50:29.118Z,93219.00
2024-02-06T02:51:29.156Z,93216.00
2024-02-06T02:52:29.269Z,93217.00
2024-02-06T02:53:29.227Z,93215.00
2024-02-06T02:54:29.316Z,93216.00
2024-02-06T02:55:29.365Z,93222.00
2024-02-06T02:56:29.370Z,93225.00
2024-02-06T02:57:29.409Z,93227.00
2024-02-06T02:58:29.493Z,93226.00
2024-02-06T02:59:29.501Z,93220.00
2024-02-06T03:00:29.538Z,93213.00
2024-02-06T03:01:29.637Z,93211.00
2024-02-06T03:02:29.685Z,93211.00
2024-02-06T03:03:29.686Z,93212.00
2024-02-06T03:04:29.745Z,93204.00
2024-02-06T03:05:29.790Z,93202.00
2024-02-06T03:06:29.801Z,93207.00
2024-02-06T03:07:29.876Z,93201.00
2024-02-06T03:08:29.857Z,93204.00
2024-02-06T03:09:29.931Z,93200.00
2024-02-06T03:10:30.011Z,93202.00
2024-02-06T03:11:29.997Z,93196.00
2024-02-06T03:12:30.058Z,93200.00
2024-02-06T03:13:30.170Z,93195.00
2024-02-06T03:14:30.130Z,93201.00
2024-02-06T03:15:30.177Z,93194.00
2024-02-06T03:16:30.262Z,93199.00
2024-02-06T03:17:30.400Z,93206.00
2024-02-06T03:18:30.355Z,93194.00
2024-02-06T03:19:30.396Z,93205.00
2024-02-06T03:20:30.415Z,93203.00
2024-02-06T03:21:30.462Z,93202.00
2024-02-06T03:22:30.592Z,93198.00
2024-02-06T03:23:30.539Z,93203.00
2024-02-06T03:24:30.673Z,93199.00
2024-02-06T03:25:30.651Z,93200.00
2024-02-06T03:26:30.705Z,93204.00
2024-02-06T03:27:30.874Z,93203.00
2024-02-06T03:28:30.812Z,93203.00
2024-02-06T03:29:30.811Z,93200.00
2024-02-06T03:30:30.844Z,93205.00
2024-02-06T03:31:30.959Z,93195.00
2024-02-06T03:32:30.940Z,93200.00
2024-02-06T03:33:31.023Z,93201.00
2024-02-06T03:34:31.083Z,93200.00
2024-02-06T03:35:31.140Z,93200.00
2024-02-06T03:36:31.089Z,93200.00
2024-02-06T03:37:31.193Z,93197.00
2024-02-06T03:38:31.214Z,93200.00
2024-02-06T03:39:31.223Z,93203.00
2024-02-06T03:40:31.296Z,93200.00
2024-02-06T03:41:31.327Z,93200.00
2024-02-06T03:42:31.367Z,93197.00
2024-02-06T03:43:31.515Z,93198.00
2024-02-06T03:44:31.440Z,93193.00
2024-02-06T03:45:31.478Z,93190.00
2024-02-06T03:46:31.577Z,93194.00
2024-02-06T03:47:31.704Z,93195.00
2024-02-06T03:48:31.744Z,93194.00
2024-02-06T03:49:31.847Z,93189.00
2024-02-06T03:50:31.741Z,93185.00
2024-02-06T03:51:31.782Z,93194.00
2024-02-06T03:52:31.922Z,93183.00
2024-02-06T03:53:31.842Z,93179.00
2024-02-06T03:54:31.903Z,93184.00
2024-02-06T03:55:31.963Z,93192.00
2024-02-06T03:56:31.962Z,93193.00
2024-02-06T03:57:32.002Z,93188.00
2024-02-06T03:58:32.154Z,93178.00
2024-02-06T03:59:32.082Z,93184.00
2024-02-06T04:00:32.115Z,93180.00
2024-02-06T04:01:32.211Z,93182.00
2024-02-06T04:02:32.189Z,93188.00
2024-02-06T04:03:32.225Z,93189.00
2024-02-06T04:04:32.334Z,93184.00
2024-02-06T04:05:32.238Z,93188.00
2024-02-06T04:06:32.300Z,93181.00
2024-02-06T04:07:32.495Z,93187.00
2024-02-06T04:08:32.385Z,93186.00
2024-02-06T04:09:32.461Z,93188.00
2024-02-06T04:10:32.557Z,93181.00
2024-02-06T04:11:32.550Z,93173.00
2024-02-06T04:12:33.284Z,93183.00
2024-02-06T04:13:32.716Z,93181.00
2024-02-06T04:14:32.717Z,93172.00
2024-02-06T04:15:32.806Z,93175.00
2024-02-06T04:16:32.849Z,93179.00
2024-02-06T04:17:32.930Z,93168.00
2024-02-06T04:18:33.012Z,93179.00
2024-02-06T04:19:33.152Z,93184.00
2024-02-06T04:20:33.021Z,93183.00
2024-02-06T04:21:33.064Z,93176.00
2024-02-06T04:22:33.146Z,93181.00
2024-02-06T04:23:33.156Z,93183.00
2024-02-06T04:24:33.201Z,93181.00
2024-02-06T04:25:33.317Z,93173.00
2024-02-06T04:26:33.296Z,93180.00
2024-02-06T04:27:33.330Z,93180.00
2024-02-06T04:28:33.456Z,93181.00
2024-02-06T04:29:40.649Z,93179.00
2024-02-06T04:30:40.645Z,93178.00
2024-02-06T04:31:40.759Z,93178.00
2024-02-06T04:32:40.725Z,93176.00
2024-02-06T04:33:40.843Z,93176.00
2024-02-06T04:34:40.787Z,93173.00
2024-02-06T04:35:40.745Z,93174.00
2024-02-06T04:36:40.785Z,93169.00
2024-02-06T04:37:40.832Z,93164.00
2024-02-06T04:38:40.818Z,93168.00
2024-02-06T04:39:40.816Z,93165.00
2024-02-06T04:40:40.877Z,93164.00
2024-02-06T04:41:40.865Z,93168.00
2024-02-06T04:42:40.877Z,93167.00
2024-02-06T04:43:40.936Z,93173.00
2024-02-06T04:44:40.948Z,93170.00
2024-02-06T04:45:40.991Z,93172.00
2024-02-06T04:46:41.084Z,93168.00
2024-02-06T04:47:41.011Z,93162.00
2024-02-06T04:48:41.016Z,93161.00
2024-02-06T04:49:41.116Z,93153.00
2024-02-06T04:50:41.061Z,93162.00
2024-02-06T04:51:41.086Z,93153.00
2024-02-06T04:52:42.025Z,93148.00
2024-02-06T04:53:41.112Z,93151.00
2024-02-06T04:54:41.127Z,93161.00
2024-02-06T04:55:41.273Z,93158.00
2024-02-06T04:56:41.160Z,93157.00
2024-02-06T04:57:41.177Z,93156.00
2024-02-06T04:58:41.259Z,93157.00
2024-02-06T04:59:41.256Z,93161.00
2024-02-06T05:00:41.302Z,93160.00
2024-02-06T05:01:41.300Z,93157.00
2024-02-06T05:02:41.303Z,93152.00
2024-02-06T05:03:41.328Z,93155.00
2024-02-06T05:04:41.525Z,93161.00
2024-02-06T05:05:41.445Z,93160.00
2024-02-06T05:06:41.537Z,93163.00
2024-02-06T05:07:41.601Z,93159.00
2024-02-06T05:08:41.630Z,93155.00
2024-02-06T05:09:41.692Z,93157.00
2024-02-06T05:10:41.810Z,93157.00
2024-02-06T05:11:41.848Z,93155.00
2024-02-06T05:12:41.906Z,93153.00
2024-02-06T05:13:42.060Z,93144.00
2024-02-06T05:14:42.041Z,93151.00
2024-02-06T05:15:42.130Z,93152.00
2024-02-06T05:16:42.240Z,93146.00
2024-02-06T05:17:42.702Z,93142.00
2024-02-06T05:18:42.499Z,93142.00
2024-02-06T05:19:42.489Z,93148.00
2024-02-06T05:20:42.513Z,93143.00
2024-02-06T05:21:42.591Z,93142.00
2024-02-06T05:22:42.796Z,93148.00
2024-02-06T05:23:42.727Z,93138.00
2024-02-06T05:24:42.840Z,93142.00
2024-02-06T05:25:42.945Z,93144.00
2024-02-06T05:26:43.032Z,93140.00
2024-02-06T05:27:43.084Z,93141.00
2024-02-06T05:28:43.145Z,93132.00
2024-02-06T05:29:43.178Z,93134.00
2024-02-06T05:30:43.276Z,93134.00
2024-02-06T05:31:43.379Z,93131.00
2024-02-06T05:32:43.444Z,93120.00
2024-02-06T05:33:43.598Z,93123.00
2024-02-06T05:34:43.691Z,93129.00
2024-02-06T05:35:43.668Z,93133.00
2024-02-06T05:36:43.735Z,93130.00
2024-02-06T05:37:43.842Z,93129.00
2024-02-06T05:38:43.893Z,93129.00
2024-02-06T05:39:43.969Z,93134.00
2024-02-06T05:40:44.137Z,93134.00
2024-02-06T05:41:44.127Z,93135.00
2024-02-06T05:42:44.198Z,93136.00
2024-02-06T05:43:44.338Z,93135.00
2024-02-06T05:44:44.362Z,93138.00
2024-02-06T05:45:44.450Z,93137.00
2024-02-06T05:46:44.559Z,93137.00
2024-02-06T05:47:44.669Z,93135.00
2024-02-06T05:48:44.726Z,93132.00
2024-02-06T05:49:44.823Z,93126.00
2024-02-06T05:50:44.951Z,93130.00
2024-02-06T05:51:44.953Z,93133.00
2024-02-06T05:52:45.083Z,93131.00
2024-02-06T05:53:46.737Z,93128.00
2024-02-06T05:54:45.137Z,93130.00
2024-02-06T05:55:45.220Z,93132.00
2024-02-06T05:56:45.175Z,93134.00
2024-02-06T05:57:45.190Z,93141.00
2024-02-06T05:58:45.318Z,93134.00
2024-02-06T05:59:45.227Z,93136.00
2024-02-06T06:00:45.343Z,93136.00
2024-02-06T06:01:45.357Z,93142.00
2024-02-06T06:02:45.296Z,93141.00
2024-02-06T06:03:45.342Z,93143.00
2024-02-06T06:04:45.373Z,93144.00
2024-02-06T06:05:45.503Z,93145.00
2024-02-06T06:06:45.402Z,93141.00
2024-02-06T06:07:45.409Z,93143.00
2024-02-06T06:08:45.394Z,93140.00
2024-02-06T06:09:45.431Z,93139.00
2024-02-06T06:10:45.518Z,93137.00
2024-02-06T06:11:45.461Z,93136.00
2024-02-06T06:12:45.482Z,93137.00
2024-02-06T06:13:45.565Z,93139.00
2024-02-06T06:14:45.520Z,93137.00
2024-02-06T06:15:45.552Z,93135.00
2024-02-06T06:16:45.595Z,93126.00
2024-02-06T06:17:45.632Z,93125.00
2024-02-06T06:18:45.664Z,93133.00
2024-02-06T06:19:45.810Z,93133.00
2024-02-06T06:20:45.687Z,93134.00
2024-02-06T06:21:45.715Z,93130.00
2024-02-06T06:22:45.784Z,93127.00
2024-02-06T06:23:45.786Z,93127.00
2024-02-06T06:24:45.840Z,93123.00
2024-02-06T06:25:46.940Z,93121.00
2024-02-06T06:26:48.840Z,93122.00
2024-02-06T06:27:45.927Z,93111.00
2024-02-06T06:28:46.002Z,93123.00
2024-02-06T06:29:50.840Z,93123.00
2024-02-06T06:30:46.039Z,93127.00
2024-02-06T06:31:46.091Z,93129.00
2024-02-06T06:32:46.151Z,93127.00
2024-02-06T06:33:46.185Z,93119.00
2024-02-06T06:34:46.392Z,93126.00
2024-02-06T06:35:46.190Z,93125.00
2024-02-06T06:36:46.383Z,93124.00
2024-02-06T06:37:46.436Z,93118.00
2024-02-06T06:38:46.419Z,93119.00
2024-02-06T06:39:46.301Z,93122.00
2024-02-06T06:40:46.459Z,93122.00
2024-02-06T06:41:46.346Z,93122.00
2024-02-06T06:42:46.401Z,93123.00
2024-02-06T06:43:46.543Z,93121.00
2024-02-06T06:44:46.467Z,93123.00
2024-02-06T06:45:47.145Z,93116.00
2024-02-06T06:46:46.769Z,93117.00
2024-02-06T06:47:46.758Z,93111.00
2024-02-06T06:48:46.934Z,93114.00
2024-02-06T06:49:47.866Z,93115.00
2024-02-06T06:50:46.761Z,93116.00
2024-02-06T06:51:47.490Z,93114.00
2024-02-06T06:52:46.766Z,93113.00
2024-02-06T06:53:46.802Z,93111.00
2024-02-06T06:54:46.742Z,93116.00
2024-02-06T06:55:46.933Z,93113.00
2024-02-06T06:56:46.773Z,93120.00
2024-02-06T06:57:46.821Z,93121.00
2024-02-06T06:58:46.969Z,93118.00
2024-02-06T06:59:46.820Z,93123.00
2024-02-06T07:00:46.849Z,93122.00
2024-02-06T07:01:46.885Z,93124.00
2024-02-06T07:02:46.940Z,93121.00
2024-02-06T07:03:47.885Z,93124.00
2024-02-06T07:04:47.010Z,93125.00
2024-02-06T07:05:46.918Z,93132.00
2024-02-06T07:06:47.060Z,93129.00
2024-02-06T07:07:46.934Z,93124.00
2024-02-06T07:08:46.921Z,93123.00
2024-02-06T07:09:47.029Z,93124.00
2024-02-06T07:10:47.068Z,93120.00
2024-02-06T07:11:46.996Z,93121.00
2024-02-06T07:12:46.949Z,93117.00
2024-02-06T07:13:46.987Z,93115.00
2024-02-06T07:14:46.964Z,93121.00
2024-02-06T07:15:46.984Z,93122.00
2024-02-06T07:16:50.718Z,93120.00
2024-02-06T07:17:47.072Z,93125.00
2024-02-06T07:18:47.183Z,93129.00
2024-02-06T07:19:47.054Z,93133.00
2024-02-06T07:20:47.147Z,93140.00
2024-02-06T07:21:47.017Z,93148.00
2024-02-06T07:22:47.193Z,93150.00
2024-02-06T07:23:47.047Z,93152.00
2024-02-06T07:24:47.150Z,93146.00
2024-02-06T07:25:48.444Z,93144.00
2024-02-06T07:26:47.141Z,93153.00
2024-02-06T07:27:47.234Z,93141.00
2024-02-06T07:29:10.603Z,93133.00
2024-02-06T07:29:47.242Z,93128.00
2024-02-06T07:30:47.363Z,93121.00
2024-02-06T07:31:47.588Z,93118.00
2024-02-06T07:32:47.358Z,93126.00
2024-02-06T07:33:50.494Z,93124.00
2024-02-06T07:34:47.595Z,93131.00
2024-02-06T07:35:47.452Z,93132.00
2024-02-06T07:36:49.339Z,93119.00
2024-02-06T07:37:47.558Z,93120.00
2024-02-06T07:38:47.556Z,93113.00
2024-02-06T07:39:51.287Z,93112.00
2024-02-06T07:40:47.733Z,93119.00
2024-02-06T07:41:49.352Z,93129.00
2024-02-06T07:42:47.662Z,93126.00
2024-02-06T07:43:47.785Z,93125.00
2024-02-06T07:44:47.677Z,93126.00
2024-02-06T07:45:47.727Z,93119.00
2024-02-06T07:46:48.420Z,93116.00
2024-02-06T07:47:47.769Z,93118.00
2024-02-06T07:48:47.787Z,93127.00
2024-02-06T07:49:47.860Z,93126.00
2024-02-06T07:50:50.155Z,93129.00
2024-02-06T07:51:48.041Z,93118.00
2024-02-06T07:52:48.114Z,93120.00
2024-02-06T07:53:48.140Z,93115.00
2024-02-06T07:54:48.183Z,93121.00
2024-02-06T07:55:48.237Z,93112.00
2024-02-06T07:56:48.206Z,93116.00
2024-02-06T07:57:48.227Z,93118.00
2024-02-06T07:58:48.312Z,93122.00
2024-02-06T07:59:48.768Z,93116.00
2024-02-06T08:00:48.410Z,93119.00
2024-02-06T08:01:48.316Z,93124.00
2024-02-06T08:02:48.270Z,93131.00
2024-02-06T08:03:48.276Z,93126.00
2024-02-06T08:04:50.942Z,93131.00
2024-02-06T08:05:48.332Z,93126.00
2024-02-06T08:06:48.390Z,93125.00
2024-02-06T08:07:48.421Z,93119.00
2024-02-06T08:08:48.335Z,93121.00
2024-02-06T08:09:48.363Z,93117.00
2024-02-06T08:11:09.603Z,93128.00
2024-02-06T08:11:48.537Z,93128.00
2024-02-06T08:12:48.506Z,93125.00
2024-02-06T08:13:48.697Z,93125.00
2024-02-06T08:14:49.521Z,93123.00
2024-02-06T08:15:48.455Z,93122.00
2024-02-06T08:16:48.525Z,93126.00
2024-02-06T08:17:48.846Z,93125.00
2024-02-06T08:18:49.544Z,93128.00
2024-02-06T08:19:48.495Z,93123.00
2024-02-06T08:20:48.487Z,93120.00
2024-02-06T08:21:48.463Z,93123.00
2024-02-06T08:22:48.551Z,93115.00
2024-02-06T08:23:48.497Z,93117.00
2024-02-06T08:24:48.504Z,93122.00
2024-02-06T08:25:48.536Z,93119.00
2024-02-06T08:26:48.527Z,93117.00
2024-02-06T08:27:48.564Z,93110.00
2024-02-06T08:28:49.272Z,93099.00
2024-02-06T08:29:49.269Z,93106.00
2024-02-06T08:30:48.589Z,93110.00
2024-02-06T08:31:48.681Z,93106.00
2024-02-06T08:32:49.623Z,93108.00
2024-02-06T08:33:48.684Z,93105.00
2024-02-06T08:34:48.996Z,93107.00
2024-02-06T08:35:48.763Z,93113.00
2024-02-06T08:36:48.704Z,93109.00
2024-02-06T08:37:48.733Z,93109.00
2024-02-06T08:38:48.787Z,93107.00
2024-02-06T08:39:48.707Z,93110.00
2024-02-06T08:40:48.869Z,93110.00
2024-02-06T08:41:49.262Z,93109.00
2024-02-06T08:42:48.774Z,93112.00
2024-02-06T08:43:53.245Z,93105.00
2024-02-06T08:44:49.814Z,93111.00
2024-02-06T08:45:48.810Z,93107.00
2024-02-06T08:46:49.367Z,93111.00
2024-02-06T08:47:50.817Z,93105.00
2024-02-06T08:48:48.909Z,93102.00
2024-02-06T08:49:48.952Z,93094.00
2024-02-06T08:50:50.093Z,93100.00
2024-02-06T08:51:48.947Z,93100.00
2024-02-06T08:52:49.011Z,93097.00
2024-02-06T08:53:48.961Z,93088.00
2024-02-06T08:54:50.767Z,93083.00
2024-02-06T08:55:49.918Z,93092.00
2024-02-06T08:56:49.017Z,93090.00
2024-02-06T08:57:50.450Z,93086.00
2024-02-06T08:58:49.285Z,93093.00
2024-02-06T09:00:01.123Z,93092.00
2024-02-06T09:01:01.224Z,93088.00
2024-02-06T09:02:01.171Z,93096.00
2024-02-06T09:03:01.075Z,93087.00
2024-02-06T09:04:04.637Z,93078.00
2024-02-06T09:05:02.234Z,93085.00
2024-02-06T09:06:01.177Z,93083.00
2024-02-06T09:07:01.187Z,93083.00
2024-02-06T09:08:01.132Z,93087.00
2024-02-06T09:09:01.073Z,93085.00
2024-02-06T09:10:01.415Z,93085.00
2024-02-06T09:11:01.152Z,93082.00
2024-02-06T09:12:01.030Z,93072.00
2024-02-06T09:13:02.177Z,93074.00
2024-02-06T09:14:02.052Z,93071.00
2024-02-06T09:15:01.002Z,93068.00
2024-02-06T09:16:01.986Z,93072.00
2024-02-06T09:17:01.782Z,93075.00
2024-02-06T09:18:01.122Z,93068.00
2024-02-06T09:19:01.920Z,93071.00
2024-02-06T09:20:01.827Z,93071.00
2024-02-06T09:21:01.730Z,93067.00
2024-02-06T09:22:00.983Z,93062.00
2024-02-06T09:23:00.973Z,93078.00
2024-02-06T09:24:02.853Z,93062.00
2024-02-06T09:25:00.984Z,93067.00
2024-02-06T09:26:00.942Z,93064.00
2024-02-06T09:27:00.941Z,93064.00
2024-02-06T09:28:01.756Z,93063.00
2024-02-06T09:29:00.976Z,93058.00
2024-02-06T09:30:01.099Z,93061.00
2024-02-06T09:31:01.185Z,93058.00
2024-02-06T09:32:01.216Z,93056.00
2024-02-06T09:33:01.243Z,93060.00
2024-02-06T09:34:01.313Z,93061.00
2024-02-06T09:35:02.404Z,93062.00
2024-02-06T09:36:01.223Z,93059.00
2024-02-06T09:37:01.254Z,93057.00
2024-02-06T09:38:01.784Z,93061.00
2024-02-06T09:39:01.213Z,93065.00
2024-02-06T09:40:01.243Z,93065.00
2024-02-06T09:41:01.228Z,93056.00
2024-02-06T09:42:01.213Z,93052.00
2024-02-06T09:43:02.097Z,93038.00
2024-02-06T09:44:01.234Z,93042.00
2024-02-06T09:45:01.237Z,93044.00
2024-02-06T09:46:01.339Z,93039.00
2024-02-06T09:47:01.272Z,93043.00
2024-02-06T09:48:01.426Z,93037.00
2024-02-06T09:49:02.283Z,93043.00
2024-02-06T09:50:02.464Z,93039.00
2024-02-06T09:51:01.390Z,93043.00
2024-02-06T09:52:01.408Z,93041.00
2024-02-06T09:53:02.417Z,93037.00
2024-02-06T09:54:01.315Z,93038.00
2024-02-06T09:55:01.356Z,93037.00
2024-02-06T09:56:01.393Z,93041.00
2024-02-06T09:57:01.286Z,93047.00
2024-02-06T09:58:01.471Z,93046.00
2024-02-06T09:59:01.390Z,93044.00
2024-02-06T10:00:01.204Z,93041.00
2024-02-06T10:01:01.299Z,93046.00
2024-02-06T10:02:01.182Z,93042.00
2024-02-06T10:03:01.209Z,93044.00
2024-02-06T10:04:02.351Z,93039.00
2024-02-06T10:05:01.511Z,93033.00
2024-02-06T10:06:01.281Z,93030.00
2024-02-06T10:07:01.256Z,93031.00
2024-02-06T10:08:01.334Z,93034.00
2024-02-06T10:09:01.277Z,93036.00
2024-02-06T10:10:01.368Z,93030.00
2024-02-06T10:11:01.352Z,93031.00
2024-02-06T10:12:01.327Z,93030.00
2024-02-06T10:13:01.354Z,93033.00
2024-02-06T10:14:01.374Z,93035.00
2024-02-06T10:15:01.399Z,93039.00
2024-02-06T10:16:01.448Z,93038.00
2024-02-06T10:17:01.420Z,93035.00
2024-02-06T10:18:01.479Z,93037.00
2024-02-06T10:19:01.738Z,93033.00
2024-02-06T10:20:01.483Z,93030.00
2024-02-06T10:21:01.490Z,93038.00
2024-02-06T10:22:01.459Z,93031.00
2024-02-06T10:23:01.507Z,93023.00
2024-02-06T10:24:01.438Z,93028.00
2024-02-06T10:25:01.400Z,93024.00
2024-02-06T10:26:01.377Z,93018.00
2024-02-06T10:27:01.366Z,93016.00
2024-02-06T10:28:01.393Z,93016.00
2024-02-06T10:29:01.311Z,93011.00
2024-02-06T10:30:02.217Z,93015.00
2024-02-06T10:31:01.313Z,93010.00
2024-02-06T10:32:01.255Z,93011.00
2024-02-06T10:33:01.790Z,93012.00
2024-02-06T10:34:01.359Z,93008.00
2024-02-06T10:35:01.438Z,93006.00
2024-02-06T10:36:01.215Z,93008.00
2024-02-06T10:37:01.431Z,93010.00
2024-02-06T10:38:01.123Z,93009.00
2024-02-06T10:39:01.132Z,93007.00
2024-02-06T10:40:01.150Z,93009.00
2024-02-06T10:41:12.287Z,93005.00
2024-02-06T10:43:36.053Z,92993.00
2024-02-06T10:44:02.130Z,92995.00
2024-02-06T10:45:03.846Z,92991.00
2024-02-06T10:46:01.254Z,92991.00
2024-02-06T10:47:01.953Z,92987.00
2024-02-06T10:48:02.243Z,92984.00
2024-02-06T10:49:01.026Z,92986.00
2024-02-06T10:50:01.022Z,92987.00
2024-02-06T10:51:01.597Z,92980.00
2024-02-06T10:52:00.879Z,92976.00
2024-02-06T10:53:00.826Z,92979.00
2024-02-06T10:54:00.805Z,92978.00
2024-02-06T10:55:01.753Z,92974.00
2024-02-06T10:56:00.762Z,92978.00
2024-02-06T10:57:00.735Z,92977.00
2024-02-06T10:58:02.214Z,92974.00
2024-02-06T10:59:00.717Z,92966.00
2024-02-06T11:00:00.840Z,92958.00
2024-02-06T11:01:00.685Z,92956.00
2024-02-06T11:02:00.756Z,92961.00
2024-02-06T11:03:00.600Z,92958.00
2024-02-06T11:04:00.788Z,92959.00
2024-02-06T11:05:00.628Z,92949.00
2024-02-06T11:06:00.556Z,92952.00
2024-02-06T11:07:00.540Z,92951.00
2024-02-06T11:08:00.515Z,92947.00
2024-02-06T11:09:00.472Z,92947.00
2024-02-06T11:10:00.487Z,92946.00
2024-02-06T11:11:00.413Z,92941.00
2024-02-06T11:12:00.376Z,92939.00
2024-02-06T11:13:00.450Z,92939.00
2024-02-06T11:14:00.325Z,92939.00
2024-02-06T11:15:00.353Z,92942.00
2024-02-06T11:16:00.345Z,92941.00
2024-02-06T11:17:00.282Z,92938.00
2024-02-06T11:18:00.280Z,92939.00
2024-02-06T11:19:00.301Z,92929.00
2024-02-06T11:20:00.357Z,92930.00
2024-02-06T11:21:00.205Z,92933.00
2024-02-06T11:22:00.222Z,92932.00
2024-02-06T11:23:00.147Z,92928.00
2024-02-06T11:24:00.160Z,92922.00
2024-02-06T11:25:00.206Z,92927.00
2024-02-06T11:26:00.119Z,92922.00
2024-02-06T11:27:00.135Z,92922.00
2024-02-06T11:28:02.821Z,92918.00
2024-02-06T11:29:01.217Z,92920.00
2024-02-06T11:30:00.738Z,92920.00
2024-02-06T11:31:00.170Z,92925.00
2024-02-06T11:32:00.099Z,92920.00
2024-02-06T11:33:00.163Z,92917.00
2024-02-06T11:34:00.157Z,92916.00
2024-02-06T11:35:00.126Z,92910.00
2024-02-06T11:36:00.055Z,92908.00
2024-02-06T11:37:00.049Z,92906.00
2024-02-06T11:37:59.998Z,92910.00
2024-02-06T11:38:59.974Z,92904.00
2024-02-06T11:39:59.969Z,92907.00
2024-02-06T11:41:00.018Z,92903.00
2024-02-06T11:42:00.003Z,92903.00
2024-02-06T11:43:00.068Z,92900.00
2024-02-06T11:44:00.054Z,92898.00
2024-02-06T11:45:00.089Z,92900.00
2024-02-06T11:46:00.137Z,92893.00
2024-02-06T11:47:00.145Z,92894.00